Tiempo atmosférico en la estación meteorológica de Rasquera, Tarragona (186 m.)



Fecha
DESCASC
Temp. máxima en grados centígrados (hora)
DESCASC
Temp. mínima en grados centígrados (hora)
DESCASC
Temp. media en grados centígrados
DESCASC
Racha de viento máxima en m/sg (hora)
DESCASC
Velocidad máxima media en intervalos de 10 minutos(hora)
DESCASC
Precipitaciones diarias en mm
DESCASC
Precipitaciones de 00:00 a 06:00 en mm
DESCASC
Precipitaciones de 06:00 a 12:00 en mm
DESCASC
Precipitaciones de 12:00 a 18:00 en mm
DESCASC
Precipitaciones de 18:00 a 24:00 en mm
DESCASC
24-01-2021 16.2 (02:40) 5.4 (02:00) 10.8 20 (02:30) 10.28 (03:20) 1.2 0.2 1 0 0
23-01-2021 16 (13:10) 3.2 (07:50) 9.6 12.5 (14:40) 6.94 (13:50) 0 0 0 0 0
22-01-2021 15.1 (13:40) 5.4 (02:00) 10.3 24.44 (08:40) 11.67 (16:40) 4.6 0 4.6 0 0
21-01-2021 13.9 (16:10) 3.2 (00:00) 8.5 3.89 (21:30) 2.78 (19:30) 0.2 0.2 0 0 0
20-01-2021 9.1 (16:30) 2.7 (00:00) 5.9 3.89 (15:30) 2.22 (15:30) 0.6 0 0 0.6 0
19-01-2021 12.7 (16:30) -0.9 (-00:0) 5.9 6.67 (17:10) 3.61 (19:50) 0 0 0 0 0
18-01-2021 16.3 (15:50) 2.3 (00:00) 9.3 10 (00:20) 4.72 (04:20) 0 0 0 0 0
17-01-2021 16.9 (15:40) 1.2 (00:00) 9 16.39 (13:50) 9.17 (13:50) 0 0 0 0 0
16-01-2021 14.4 (16:20) 3.8 (00:00) 9.1 13.33 (01:20) 6.39 (01:20) 0 0 0 0 0
15-01-2021 12.9 (15:30) 8.8 (00:00) 10.8 17.5 (02:20) 9.44 (02:20) 0 0 0 0 0
14-01-2021 11.6 (15:40) 4.2 (02:50) 7.9 15.28 (21:20) 8.33 (20:20) 0 0 0 0 0
13-01-2021 11.2 (15:30) 2.5 (00:00) 6.8 12.22 (13:10) 6.11 (13:10) 0 0 0 0 0
12-01-2021 7.8 (14:10) -2.1 (-00:0) 2.9 12.5 (15:00) 6.94 (13:20) 0 0 0 0 0
11-01-2021 5.7 (15:10) -0.5 (-00:0) 2.6 12.5 (11:00) 6.94 (11:00) -- -- -- -- --
10-01-2021 3 (23:40) 0 (00:00) 1.5 -- (--) -- (--) -- -- -- -- --
09-01-2021 0.5 (14:10) -0.1 (00:00) 0.2 -- (--) -- (--) -- -- -- -- --
08-01-2021 4 (14:00) -0.9 (-00:0) 1.6 -- (--) -- (--) -- -- -- -- --
07-01-2021 1.5 (12:10) -1.8 (-00:0) -0.1 3.89 (19:00) 2.5 (19:00) -- 0 0 -- --
06-01-2021 7.9 (14:40) -2.1 (-00:0) 2.9 8.33 (13:20) 5 (14:20) 0 0 0 0 0
05-01-2021 8.9 (15:40) 1 (00:00) 4.9 10.83 (13:00) 5.83 (12:20) 0 0 0 0 0
04-01-2021 9.4 (14:20) -1.8 (-00:0) 3.8 10 (12:40) 5.28 (15:30) 0 0 0 0 0
03-01-2021 10.2 (15:20) 3.8 (00:00) 7 15.28 (06:20) 7.78 (05:50) 0 0 0 0 0
02-01-2021 9.7 (15:40) 4.1 (00:00) 6.9 16.39 (22:00) 8.33 (21:20) 0 0 0 0 0
01-01-2021 9.2 (16:40) 5.3 (00:00) 7.3 13.33 (10:50) 6.11 (10:50) 0 0 0 0 0
31-12-2020 13.5 (15:10) 0.8 (00:00) 7.2 7.78 (19:30) 3.89 (19:30) 0 0 0 0 0
30-12-2020 11 (16:50) 6.5 (00:00) 8.8 15 (16:00) 7.22 (16:10) 0 0 0 0 0
29-12-2020 12.6 (13:20) 5.4 (00:00) 9 13.33 (13:30) 6.39 (13:40) 0 0 0 0 0
28-12-2020 13.7 (16:10) -1.3 (-00:0) 6.2 16.94 (16:20) 7.5 (16:30) 1.4 1.2 0.2 0 0
27-12-2020 8.1 (13:30) 0 (00:00) 4.1 10 (02:20) 4.44 (02:50) 0 0 0 0 0
26-12-2020 10.4 (16:20) 4.4 (00:00) 7.4 19.44 (04:30) 10.56 (04:20) 0 0 0 0 0

Gráficas

Temp. máximas Temp. mínimas Temp. medias Precipitaciones Rachas de viento máximas Velocidades máximas media en intervalos de 10 minutos

Datos horarios

Fecha y hora oficial Temperatura (ºC) Velocidad del viento (km/h) Dirección del viento Racha (km/h) Dirección de racha Precipitación (mm) Presión (hPa) Tendencia (hPa) Humedad (%)
2021-01-24 23:00:00 7.5 0 Calma 12 Oeste 0 -- -- 75
2021-01-24 22:00:00 7.1 5 Sudoeste 9 Sudoeste 0 -- -- 77
2021-01-24 21:00:00 10 6 Sudoeste 13 Oeste 0 -- -- 67
2021-01-24 20:00:00 10.7 6 Oeste 9 Noroeste 0 -- -- 66
2021-01-24 19:00:00 11.4 3 Este 20 Noroeste 0 -- -- 64
2021-01-24 18:00:00 13.3 9 Noroeste 30 Oeste 0 -- -- 57
2021-01-24 17:00:00 14.8 15 Noroeste 37 Oeste 0 -- -- 50
2021-01-24 16:00:00 15 20 Oeste 42 Oeste 0 -- -- 52
2021-01-24 15:00:00 14 19 Oeste 51 Noroeste 0 -- -- 53
2021-01-24 14:00:00 14.1 26 Noroeste 55 Noroeste 0 -- -- 51
2021-01-24 13:00:00 13.6 27 Noroeste 71 Oeste 0 -- -- 51
2021-01-24 12:00:00 12.7 29 Oeste 59 Oeste 0 -- -- 55
2021-01-24 11:00:00 11.8 31 Oeste 65 Oeste 0 -- -- 59
2021-01-24 10:00:00 11.4 25 Oeste 63 Oeste 0 -- -- 63
2021-01-24 09:00:00 10.5 28 Oeste 58 Oeste 0 -- -- 73
2021-01-24 08:00:00 10.2 29 Oeste 60 Oeste 0.8 -- -- 76
2021-01-24 07:00:00 11.8 30 Noroeste 57 Oeste 0.2 -- -- 72
2021-01-24 06:00:00 15.1 24 Oeste 54 Oeste 0 -- -- 46
2021-01-24 05:00:00 15.2 28 Oeste 57 Oeste 0 -- -- 46
2021-01-24 04:00:00 15.3 32 Oeste 67 Oeste 0 -- -- 49
2021-01-24 03:00:00 15.9 31 Oeste 72 Oeste 0 -- -- 50
2021-01-24 02:00:00 5.4 3 Nordeste 12 Norte 0 -- -- 95
2021-01-24 01:00:00 6.1 5 Sudoeste 9 Noroeste 0.2 -- -- 95
2021-01-24 00:00:00 5.9 0 Calma 6 Oeste 0 -- -- 93
2021-01-23 23:00:00 6 4 Sudeste 7 Sur 0 -- -- 91
2021-01-23 22:00:00 7.1 0 Calma 4 Norte 0 -- -- 90
2021-01-23 21:00:00 7.9 0 Calma 7 Noroeste 0 -- -- 81
2021-01-23 20:00:00 8.9 3 Sudoeste 6 Sur 0 -- -- 81
2021-01-23 19:00:00 10.2 0 Calma 6 Sudoeste 0 -- -- 72
2021-01-23 18:00:00 11.8 3 Norte 14 Norte 0 -- -- 67
2021-01-23 17:00:00 13.3 8 Norte 36 Oeste 0 -- -- 56
2021-01-23 16:00:00 15.2 23 Oeste 44 Oeste 0 -- -- 48
2021-01-23 15:00:00 15 18 Oeste 45 Sudoeste 0 -- -- 45
2021-01-23 14:00:00 14.9 21 Oeste 43 Oeste 0 -- -- 46
2021-01-23 13:00:00 15.8 16 Oeste 41 Sudoeste 0 -- -- 43
2021-01-23 12:00:00 14.9 17 Oeste 35 Oeste 0 -- -- 46
2021-01-23 11:00:00 10.6 6 Noroeste 16 Oeste 0 -- -- 62
2021-01-23 10:00:00 6.5 0 Calma 14 Sudoeste 0 -- -- 78
2021-01-23 09:00:00 4.4 6 Sudoeste 14 Sudoeste 0 -- -- 81
2021-01-23 08:00:00 3.8 4 Oeste 9 Sur 0 -- -- 84
2021-01-23 07:00:00 4 5 Sudeste 8 Este 0 -- -- 80
2021-01-23 06:00:00 5.5 2 Norte 10 Oeste 0 -- -- 74
2021-01-23 05:00:00 5.8 3 Oeste 11 Noroeste 0 -- -- 71
2021-01-23 04:00:00 9 4 Norte 27 Noroeste 0 -- -- 60
2021-01-23 03:00:00 10.2 13 Noroeste 44 Oeste 0 -- -- 55
2021-01-23 02:00:00 10.3 15 Noroeste 41 Oeste 0 -- -- 58
2021-01-23 01:00:00 9.6 18 Noroeste 42 Noroeste 0 -- -- 61
2021-01-23 00:00:00 9.4 17 Noroeste 39 Noroeste 0 -- -- 60
2021-01-22 23:00:00 9.6 21 Oeste 45 Oeste 0 -- -- 59
2021-01-22 22:00:00 9.8 16 Oeste 48 Oeste 0 -- -- 59
2021-01-22 21:00:00 10.7 25 Noroeste 59 Noroeste 0 -- -- 53
2021-01-22 20:00:00 10.9 27 Oeste 52 Oeste 0 -- -- 59
2021-01-22 19:00:00 11.2 24 Oeste 66 Oeste 0 -- -- 57
2021-01-22 18:00:00 11.8 28 Noroeste 63 Sudoeste 0 -- -- 52
2021-01-22 17:00:00 12.8 33 Oeste 78 Oeste 0 -- -- 54
2021-01-22 16:00:00 13.7 37 Oeste 61 Oeste 0 -- -- 55
2021-01-22 15:00:00 14.3 27 Noroeste 59 Noroeste 0 -- -- 53
2021-01-22 14:00:00 13.8 33 Oeste 67 Noroeste 0 -- -- 57
2021-01-22 13:00:00 14.5 19 Oeste 52 Oeste 0 -- -- 52
2021-01-22 12:00:00 14.4 31 Oeste 55 Oeste 0.2 -- -- 54
2021-01-22 11:00:00 10.7 4 Nordeste 25 Este 0 -- -- 80
2021-01-22 10:00:00 8.4 12 Sudeste 25 Oeste 0.2 -- -- 91
2021-01-22 09:00:00 9.3 24 Oeste 88 Oeste 4.2 -- -- 85
2021-01-22 08:00:00 8.2 3 Oeste 17 Noroeste 0 -- -- 92
2021-01-22 07:00:00 8.1 4 Oeste 15 Oeste 0 -- -- 93
2021-01-22 06:00:00 6.5 3 Sudoeste 13 Oeste 0 -- -- 98
2021-01-22 05:00:00 6.1 8 Oeste 13 Noroeste 0 -- -- 98
2021-01-22 04:00:00 6.4 6 Norte 12 Noroeste 0 -- -- 98
2021-01-22 03:00:00 5.7 3 Sudoeste 6 Sudoeste 0 -- -- 98
2021-01-22 02:00:00 5.4 0 Calma 5 Sudoeste 0 -- -- 97
2021-01-22 01:00:00 5.6 2 Oeste 11 Oeste 0 -- -- 97
2021-01-22 00:00:00 5.8 2 Sur 8 Sur 0 -- -- 95
2021-01-21 23:00:00 6.6 4 Sudoeste 11 Sur 0 -- -- 95
2021-01-21 22:00:00 7 4 Nordeste 14 Oeste 0 -- -- 94
2021-01-21 21:00:00 7.7 5 Sur 13 Norte 0 -- -- 91
2021-01-21 20:00:00 9.3 7 Sudoeste 12 Sudoeste 0 -- -- 85
2021-01-21 19:00:00 9.7 3 Sur 7 Sur 0 -- -- 86
2021-01-21 18:00:00 12.1 0 Calma 5 Sur 0 -- -- 81
2021-01-21 17:00:00 13.3 2 Sudoeste 7 Oeste 0 -- -- 76
2021-01-21 16:00:00 13.8 4 Oeste 7 Noroeste 0 -- -- 72
2021-01-21 15:00:00 13.6 2 Noroeste 9 Noroeste 0 -- -- 72
2021-01-21 14:00:00 12.1 4 Noroeste 9 Noroeste 0 -- -- 80
2021-01-21 13:00:00 9.1 4 Norte 8 Noroeste 0 -- -- 97
2021-01-21 12:00:00 6.5 3 Noroeste 10 Noroeste 0 -- -- 100
2021-01-21 11:00:00 5.8 5 Noroeste 9 Noroeste 0 -- -- 100
2021-01-21 10:00:00 3.7 4 Noroeste 7 Noroeste 0 -- -- 99
2021-01-21 09:00:00 3.3 5 Sudeste 8 Sur 0 -- -- 99
2021-01-21 08:00:00 3.2 4 Oeste 8 Oeste 0 -- -- 99
2021-01-21 07:00:00 3.3 0 Calma 7 Noroeste 0 -- -- 99
2021-01-21 06:00:00 4 5 Noroeste 8 Noroeste 0 -- -- 99
2021-01-21 05:00:00 4.5 0 Calma 5 Norte 0.2 -- -- 99
2021-01-21 04:00:00 4.8 0 Calma 4 Norte 0 -- -- 99
2021-01-21 03:00:00 5 0 Calma 3 Este 0 -- -- 99
2021-01-21 02:00:00 4.9 0 Calma 8 Sur 0 -- -- 99
2021-01-21 01:00:00 4.7 4 Sur 9 Sudoeste 0 -- -- 99
2021-01-21 00:00:00 4.6 0 Calma 4 Noroeste 0 -- -- 98
2021-01-20 23:00:00 5 3 Sudoeste 5 Sudoeste 0 -- -- 98
2021-01-20 22:00:00 4.6 0 Calma 5 Noroeste 0 -- -- 97
2021-01-20 21:00:00 5 0 Calma 6 Sur 0 -- -- 97
2021-01-20 20:00:00 4.9 0 Calma 5 Sur 0 -- -- 95
2021-01-20 19:00:00 6.9 3 Nordeste 12 Sudoeste 0 -- -- 95
2021-01-20 18:00:00 8.4 0 Calma 11 Oeste 0 -- -- 94
2021-01-20 17:00:00 8.8 3 Oeste 10 Sudoeste 0 -- -- 95
2021-01-20 16:00:00 8.8 0 Calma 14 Sudeste 0 -- -- 96
2021-01-20 15:00:00 8.5 2 Nordeste 8 Sudoeste 0.2 -- -- 95
2021-01-20 14:00:00 8.5 5 Noroeste 9 Noroeste 0.4 -- -- 92
2021-01-20 13:00:00 7.5 0 Calma 10 Norte 0 -- -- 97
2021-01-20 12:00:00 6.9 0 Calma 7 Nordeste 0 -- -- 99
2021-01-20 11:00:00 5.8 0 Calma 5 Este 0 -- -- 99
2021-01-20 10:00:00 4.6 3 Este 6 Este 0 -- -- 99
2021-01-20 09:00:00 3.8 3 Nordeste 6 Norte 0 -- -- 98
2021-01-20 08:00:00 3.3 3 Sudeste 5 Sudeste 0 -- -- 99
2021-01-20 07:00:00 3.1 0 Calma 5 Norte 0 -- -- 98
2021-01-20 06:00:00 3.4 2 Norte 5 Norte 0 -- -- 98
2021-01-20 05:00:00 3.7 2 Norte 6 Norte 0 -- -- 98
2021-01-20 04:00:00 4.1 0 Calma 6 Oeste 0 -- -- 98
2021-01-20 03:00:00 4.3 4 Oeste 7 Oeste 0 -- -- 98
2021-01-20 02:00:00 2.9 4 Sudeste 7 Sudeste 0 -- -- 97
2021-01-20 01:00:00 3.2 0 Calma 4 Este 0 -- -- 97
2021-01-20 00:00:00 4 0 Calma 6 Sur 0 -- -- 95
2021-01-19 23:00:00 4.4 0 Calma 6 Noroeste 0 -- -- 95
2021-01-19 22:00:00 5.6 2 Norte 6 Noroeste 0 -- -- 93
2021-01-19 21:00:00 7.9 3 Sur 19 Sudeste 0 -- -- 89
2021-01-19 20:00:00 8.5 11 Sudeste 21 Sur 0 -- -- 89
2021-01-19 19:00:00 8.6 10 Sur 17 Sur 0 -- -- 90
2021-01-19 18:00:00 9.7 8 Sudeste 24 Este 0 -- -- 86
2021-01-19 17:00:00 12.2 12 Sudeste 23 Sudeste 0 -- -- 77
2021-01-19 16:00:00 11.9 0 Calma 8 Sudeste 0 -- -- 72
2021-01-19 15:00:00 10.5 2 Nordeste 6 Nordeste 0 -- -- 73
2021-01-19 14:00:00 6.8 2 Nordeste 8 Norte 0 -- -- 89
2021-01-19 13:00:00 4 4 Noroeste 8 Noroeste 0 -- -- 98
2021-01-19 12:00:00 2.4 0 Calma 4 Norte 0 -- -- 99
2021-01-19 11:00:00 1.3 0 Calma 4 Este 0 -- -- 98
2021-01-19 10:00:00 0.2 2 Este 4 Este 0 -- -- 98
2021-01-19 09:00:00 -0.5 0 Calma 4 Este 0 -- -- 98
2021-01-19 08:00:00 -0.9 0 Calma 2 Sudeste 0 -- -- 97
2021-01-19 07:00:00 -0.8 0 Calma 3 Norte 0 -- -- 97
2021-01-19 06:00:00 -0.3 2 Sur 5 Sudeste 0 -- -- 97
2021-01-19 05:00:00 -0.7 0 Calma 3 Nordeste 0 -- -- 96
2021-01-19 04:00:00 0.2 0 Calma 3 Sudeste 0 -- -- 96
2021-01-19 03:00:00 0.3 0 Calma 3 Sudeste 0 -- -- 95
2021-01-19 02:00:00 1.1 0 Calma 4 Norte 0 -- -- 95
2021-01-19 01:00:00 2.1 3 Oeste 5 Noroeste 0 -- -- 95
2021-01-19 00:00:00 2.3 3 Oeste 4 Oeste 0 -- -- 95
2021-01-18 23:00:00 2.8 2 Oeste 3 Oeste 0 -- -- 93
2021-01-18 22:00:00 4.2 0 Calma 8 Oeste 0 -- -- 90
2021-01-18 21:00:00 4.8 3 Noroeste 6 Sur 0 -- -- 89
2021-01-18 20:00:00 6 3 Sur 9 Sur 0 -- -- 85
2021-01-18 19:00:00 7 5 Sur 6 Sur 0 -- -- 82
2021-01-18 18:00:00 10.9 2 Sudeste 14 Noroeste 0 -- -- 67
2021-01-18 17:00:00 13.9 10 Noroeste 25 Noroeste 0 -- -- 57
2021-01-18 16:00:00 15.4 15 Noroeste 26 Noroeste 0 -- -- 50
2021-01-18 15:00:00 16.1 13 Sudoeste 30 Sudoeste 0 -- -- 50
2021-01-18 14:00:00 15.9 14 Oeste 26 Oeste 0 -- -- 50
2021-01-18 13:00:00 14.4 9 Noroeste 24 Sudoeste 0 -- -- 57
2021-01-18 12:00:00 14.2 12 Oeste 28 Sudoeste 0 -- -- 57
2021-01-18 11:00:00 12.4 8 Norte 17 Noroeste 0 -- -- 68
2021-01-18 10:00:00 10.2 3 Norte 13 Noroeste 0 -- -- 78
2021-01-18 09:00:00 8 3 Nordeste 6 Este 0 -- -- 84
2021-01-18 08:00:00 8.4 0 Calma 13 Noroeste 0 -- -- 80
2021-01-18 07:00:00 10.7 7 Noroeste 21 Oeste 0 -- -- 70
2021-01-18 06:00:00 11.8 12 Oeste 28 Oeste 0 -- -- 66
2021-01-18 05:00:00 11.9 14 Oeste 33 Oeste 0 -- -- 68
2021-01-18 04:00:00 11.6 13 Oeste 27 Oeste 0 -- -- 70
2021-01-18 03:00:00 11.4 14 Oeste 28 Oeste 0 -- -- 71
2021-01-18 02:00:00 11.9 12 Oeste 29 Oeste 0 -- -- 70
2021-01-18 01:00:00 12 9 Oeste 36 Oeste 0 -- -- 70
2021-01-18 00:00:00 12.4 13 Oeste 40 Oeste 0 -- -- 69
2021-01-17 23:00:00 12.8 19 Oeste 38 Sudoeste 0 -- -- 67
2021-01-17 22:00:00 12.7 11 Oeste 31 Sudoeste 0 -- -- 68
2021-01-17 21:00:00 13.3 16 Oeste 49 Oeste 0 -- -- 65
2021-01-17 20:00:00 13.6 14 Oeste 35 Sudoeste 0 -- -- 63
2021-01-17 19:00:00 14.3 13 Oeste 39 Oeste 0 -- -- 61
2021-01-17 18:00:00 14.7 14 Oeste 48 Noroeste 0 -- -- 59
2021-01-17 17:00:00 15.8 15 Noroeste 38 Noroeste 0 -- -- 54
2021-01-17 16:00:00 16.6 19 Oeste 46 Oeste 0 -- -- 48
2021-01-17 15:00:00 16.6 19 Oeste 57 Oeste 0 -- -- 46
2021-01-17 14:00:00 16.7 28 Oeste 59 Oeste 0 -- -- 42
2021-01-17 13:00:00 16 19 Noroeste 37 Noroeste 0 -- -- 40
2021-01-17 12:00:00 15.5 8 Noroeste 30 Noroeste 0 -- -- 39
2021-01-17 11:00:00 12.1 7 Norte 17 Norte 0 -- -- 44
2021-01-17 10:00:00 9 8 Norte 13 Noroeste 0 -- -- 48
2021-01-17 09:00:00 5.7 8 Noroeste 15 Noroeste 0 -- -- 57
2021-01-17 08:00:00 4.9 8 Oeste 15 Noroeste 0 -- -- 60
2021-01-17 07:00:00 5.7 12 Noroeste 22 Noroeste 0 -- -- 56
2021-01-17 06:00:00 4.6 10 Oeste 19 Noroeste 0 -- -- 62
2021-01-17 05:00:00 5 12 Noroeste 18 Noroeste 0 -- -- 61
2021-01-17 04:00:00 2.3 8 Noroeste 13 Noroeste 0 -- -- 79
2021-01-17 03:00:00 1.5 3 Este 9 Noroeste 0 -- -- 84
2021-01-17 02:00:00 2.4 3 Noroeste 12 Oeste 0 -- -- 84
2021-01-17 01:00:00 3.5 5 Noroeste 12 Oeste 0 -- -- 80
2021-01-17 00:00:00 3.8 8 Oeste 17 Noroeste 0 -- -- 81
2021-01-16 23:00:00 4.5 10 Noroeste 21 Noroeste 0 -- -- 80
2021-01-16 22:00:00 5.6 9 Noroeste 17 Oeste 0 -- -- 76
2021-01-16 21:00:00 6.5 6 Noroeste 10 Noroeste 0 -- -- 72
2021-01-16 20:00:00 7.8 9 Noroeste 14 Noroeste 0 -- -- 67
2021-01-16 19:00:00 9.2 8 Noroeste 16 Noroeste 0 -- -- 62
2021-01-16 18:00:00 10.9 8 Noroeste 21 Noroeste 0 -- -- 53
2021-01-16 17:00:00 13.2 9 Noroeste 28 Oeste 0 -- -- 44
2021-01-16 16:00:00 14.3 12 Oeste 28 Oeste 0 -- -- 42
2021-01-16 15:00:00 13.7 15 Oeste 33 Oeste 0 -- -- 45
2021-01-16 14:00:00 12.7 19 Oeste 36 Sudoeste 0 -- -- 48
2021-01-16 13:00:00 12 21 Oeste 36 Sudoeste 0 -- -- 52
2021-01-16 12:00:00 11.2 17 Oeste 37 Sudoeste 0 -- -- 54
2021-01-16 11:00:00 10.5 16 Oeste 38 Sudoeste 0 -- -- 58
2021-01-16 10:00:00 9.2 13 Noroeste 28 Noroeste 0 -- -- 62
2021-01-16 09:00:00 6.6 10 Noroeste 30 Oeste 0 -- -- 71
2021-01-16 08:00:00 7.6 13 Noroeste 37 Oeste 0 -- -- 66
2021-01-16 07:00:00 7.8 17 Oeste 36 Oeste 0 -- -- 66
2021-01-16 06:00:00 7.8 20 Oeste 33 Oeste 0 -- -- 68
2021-01-16 05:00:00 7.9 20 Oeste 35 Oeste 0 -- -- 67
2021-01-16 04:00:00 8.1 17 Noroeste 38 Oeste 0 -- -- 67
2021-01-16 03:00:00 8.3 18 Oeste 45 Oeste 0 -- -- 66
2021-01-16 02:00:00 8.2 22 Oeste 48 Sudoeste 0 -- -- 66
2021-01-16 01:00:00 8.3 19 Oeste 45 Oeste 0 -- -- 65
2021-01-16 00:00:00 8.8 24 Oeste 50 Oeste 0 -- -- 65
2021-01-15 23:00:00 8.9 21 Oeste 46 Oeste 0 -- -- 64
2021-01-15 22:00:00 9.4 27 Oeste 56 Oeste 0 -- -- 63
2021-01-15 21:00:00 9.7 27 Oeste 52 Oeste 0 -- -- 62
2021-01-15 20:00:00 10.2 30 Oeste 55 Oeste 0 -- -- 61
2021-01-15 19:00:00 10.6 23 Oeste 53 Oeste 0 -- -- 61
2021-01-15 18:00:00 11.3 25 Oeste 58 Oeste 0 -- -- 59
2021-01-15 17:00:00 12.4 21 Oeste 48 Oeste 0 -- -- 57
2021-01-15 16:00:00 12.6 23 Oeste 52 Oeste 0 -- -- 57
2021-01-15 15:00:00 12.6 27 Oeste 55 Oeste 0 -- -- 57
2021-01-15 14:00:00 12.4 27 Oeste 54 Oeste 0 -- -- 59
2021-01-15 13:00:00 12.5 27 Oeste 57 Oeste 0 -- -- 59
2021-01-15 12:00:00 11.5 30 Oeste 51 Oeste 0 -- -- 61
2021-01-15 11:00:00 10 24 Oeste 47 Oeste 0 -- -- 64
2021-01-15 10:00:00 9.5 20 Oeste 44 Sudoeste 0 -- -- 65
2021-01-15 09:00:00 9.4 19 Oeste 39 Oeste 0 -- -- 64
2021-01-15 08:00:00 9 14 Oeste 39 Oeste 0 -- -- 65
2021-01-15 07:00:00 9.1 23 Oeste 49 Sudoeste 0 -- -- 65
2021-01-15 06:00:00 9.2 23 Oeste 40 Oeste 0 -- -- 66
2021-01-15 05:00:00 9.6 18 Oeste 48 Sudoeste 0 -- -- 66
2021-01-15 04:00:00 10 21 Oeste 49 Oeste 0 -- -- 68
2021-01-15 03:00:00 10.3 27 Oeste 63 Oeste 0 -- -- 69
2021-01-15 02:00:00 10.5 26 Oeste 53 Oeste 0 -- -- 70
2021-01-15 01:00:00 10.5 26 Oeste 50 Oeste 0 -- -- 71
2021-01-15 00:00:00 10.4 20 Oeste 48 Noroeste 0 -- -- 71
2021-01-14 23:00:00 10.1 21 Oeste 46 Oeste 0 -- -- 71
2021-01-14 22:00:00 9.9 23 Noroeste 55 Noroeste 0 -- -- 68
2021-01-14 21:00:00 10 30 Oeste 52 Oeste 0 -- -- 65
2021-01-14 20:00:00 9.9 28 Oeste 53 Oeste 0 -- -- 60
2021-01-14 19:00:00 10 22 Oeste 49 Noroeste 0 -- -- 59
2021-01-14 18:00:00 10 10 Oeste 33 Oeste 0 -- -- 59
2021-01-14 17:00:00 10.8 24 Oeste 45 Oeste 0 -- -- 58
2021-01-14 16:00:00 11.5 19 Oeste 38 Oeste 0 -- -- 57
2021-01-14 15:00:00 11.3 19 Noroeste 41 Noroeste 0 -- -- 58
2021-01-14 14:00:00 11 24 Noroeste 41 Noroeste 0 -- -- 58
2021-01-14 13:00:00 10.6 26 Noroeste 48 Noroeste 0 -- -- 59
2021-01-14 12:00:00 10 23 Noroeste 45 Noroeste 0 -- -- 62
2021-01-14 11:00:00 9.5 24 Noroeste 41 Noroeste 0 -- -- 63
2021-01-14 10:00:00 8.9 20 Noroeste 42 Noroeste 0 -- -- 64
2021-01-14 09:00:00 8 20 Noroeste 37 Noroeste 0 -- -- 67
2021-01-14 08:00:00 7.6 22 Noroeste 42 Noroeste 0 -- -- 69
2021-01-14 07:00:00 7.8 24 Noroeste 43 Noroeste 0 -- -- 68
2021-01-14 06:00:00 7.8 21 Noroeste 40 Noroeste 0 -- -- 68
2021-01-14 05:00:00 6.9 13 Noroeste 31 Noroeste 0 -- -- 72
2021-01-14 04:00:00 4.8 13 Noroeste 23 Noroeste 0 -- -- 80
2021-01-14 03:00:00 4.2 8 Noroeste 21 Norte 0 -- -- 82
2021-01-14 02:00:00 5.1 8 Norte 27 Norte 0 -- -- 78
2021-01-14 01:00:00 6.5 15 Noroeste 31 Noroeste 0 -- -- 73
2021-01-14 00:00:00 8.4 21 Noroeste 38 Noroeste 0 -- -- 67
2021-01-13 23:00:00 8.7 16 Noroeste 41 Noroeste 0 -- -- 67
2021-01-13 22:00:00 8.6 15 Noroeste 35 Oeste 0 -- -- 67
2021-01-13 21:00:00 9.2 16 Oeste 31 Oeste 0 -- -- 65
2021-01-13 20:00:00 7.2 9 Noroeste 22 Noroeste 0 -- -- 73
2021-01-13 19:00:00 9 12 Noroeste 24 Noroeste 0 -- -- 66
2021-01-13 18:00:00 9.4 14 Noroeste 34 Oeste 0 -- -- 65
2021-01-13 17:00:00 10.6 15 Oeste 33 Oeste 0 -- -- 61
2021-01-13 16:00:00 11.1 15 Oeste 32 Noroeste 0 -- -- 60
2021-01-13 15:00:00 11.1 16 Oeste 35 Noroeste 0 -- -- 60
2021-01-13 14:00:00 10.6 19 Noroeste 44 Noroeste 0 -- -- 61
2021-01-13 13:00:00 10.3 18 Noroeste 39 Noroeste 0 -- -- 61
2021-01-13 12:00:00 10.1 16 Oeste 44 Sudoeste 0 -- -- 61
2021-01-13 11:00:00 9.7 17 Noroeste 35 Oeste 0 -- -- 61
2021-01-13 10:00:00 8.9 15 Noroeste 39 Noroeste 0 -- -- 63
2021-01-13 09:00:00 7.6 15 Noroeste 33 Oeste 0 -- -- 67
2021-01-13 08:00:00 7.7 17 Noroeste 34 Oeste 0 -- -- 66
2021-01-13 07:00:00 7.6 15 Noroeste 31 Noroeste 0 -- -- 66
2021-01-13 06:00:00 7 15 Noroeste 33 Noroeste 0 -- -- 67
2021-01-13 05:00:00 3.3 13 Noroeste 27 Noroeste 0 -- -- 80
2021-01-13 04:00:00 3.1 12 Noroeste 22 Noroeste 0 -- -- 81
2021-01-13 03:00:00 6.1 15 Noroeste 34 Oeste 0 -- -- 68
2021-01-13 02:00:00 5.2 11 Noroeste 29 Oeste 0 -- -- 72
2021-01-13 01:00:00 5 11 Noroeste 35 Oeste 0 -- -- 73
2021-01-13 00:00:00 6.5 19 Oeste 36 Oeste 0 -- -- 66
2021-01-12 23:00:00 4.1 12 Noroeste 28 Oeste 0 -- -- 75
2021-01-12 22:00:00 5.7 8 Noroeste 30 Oeste 0 -- -- 69
2021-01-12 21:00:00 6.5 13 Oeste 39 Noroeste 0 -- -- 66
2021-01-12 20:00:00 6.5 14 Noroeste 29 Noroeste 0 -- -- 66
2021-01-12 19:00:00 6.4 15 Oeste 31 Oeste 0 -- -- 66
2021-01-12 18:00:00 6.2 13 Noroeste 27 Oeste 0 -- -- 65
2021-01-12 17:00:00 6.9 12 Noroeste 30 Noroeste 0 -- -- 63
2021-01-12 16:00:00 7.3 19 Oeste 43 Noroeste 0 -- -- 62
2021-01-12 15:00:00 7.6 24 Noroeste 45 Noroeste 0 -- -- 61
2021-01-12 14:00:00 7.6 15 Noroeste 43 Noroeste 0 -- -- 61
2021-01-12 13:00:00 7.1 22 Noroeste 37 Oeste 0 -- -- 61
2021-01-12 12:00:00 7.1 16 Noroeste 34 Oeste 0 -- -- 60
2021-01-12 11:00:00 4.6 15 Noroeste 35 Noroeste 0 -- -- 67
2021-01-12 10:00:00 1 15 Noroeste 27 Noroeste 0 -- -- 74
2021-01-12 09:00:00 -1.3 13 Noroeste 21 Noroeste 0 -- -- 84
2021-01-12 08:00:00 -2 10 Noroeste 22 Oeste 0 -- -- 86
2021-01-12 07:00:00 -1.5 12 Noroeste 21 Noroeste 0 -- -- 85
2021-01-12 06:00:00 -1.5 13 Noroeste 23 Noroeste 0 -- -- 85
2021-01-12 05:00:00 -1.5 13 Noroeste 21 Norte 0 -- -- 85
2021-01-12 04:00:00 -1.4 11 Noroeste 22 Noroeste 0 -- -- 83
2021-01-12 03:00:00 -1 15 Norte 22 Norte 0 -- -- 82
2021-01-12 02:00:00 0.1 12 Norte 25 Noroeste 0 -- -- 77
2021-01-12 01:00:00 1.6 10 Noroeste 25 Oeste 0 -- -- 70
2021-01-12 00:00:00 0 8 Noroeste 22 Noroeste 0 -- -- 78
2021-01-11 23:00:00 0.3 9 Noroeste 24 Noroeste 0 -- -- 78
2021-01-11 22:00:00 0.3 9 Noroeste 20 Noroeste 0 -- -- 80
2021-01-11 21:00:00 -0.4 8 Noroeste 19 Norte 0 -- -- 84
2021-01-11 20:00:00 0.2 12 Noroeste 28 Norte 0 -- -- 82
2021-01-11 19:00:00 1.1 14 Noroeste 23 Norte 0 -- -- 79
2021-01-11 18:00:00 2.6 12 Noroeste 27 Noroeste 0 -- -- 73
2021-01-11 17:00:00 4.3 14 Noroeste 22 Noroeste 0.2 -- -- 63
2021-01-11 16:00:00 5.3 13 Noroeste 26 Oeste 1 -- -- 60
2021-01-11 15:00:00 5.5 14 Oeste 37 Oeste 2.4 -- -- 59
2021-01-11 14:00:00 5.2 20 Noroeste 35 Sudoeste 2.8 -- -- 59
2021-01-11 13:00:00 5 22 Oeste 39 Sudoeste 2.8 -- -- 60
2021-01-11 12:00:00 4.4 22 Oeste 44 Oeste 2.4 -- -- 62
2021-01-11 11:00:00 4 25 Oeste 45 Oeste 1.4 -- -- 63
2021-01-11 10:00:00 2.4 11 Noroeste 22 Oeste 0.4 -- -- 70
2021-01-11 09:00:00 0.4 12 Noroeste 26 Noroeste 0 -- -- 78
2021-01-11 08:00:00 1.1 11 Noroeste 23 Noroeste 0.2 -- -- 74
2021-01-11 07:00:00 2.2 14 Noroeste 40 Oeste 0.2 -- -- 68
2021-01-11 06:00:00 2.2 14 Noroeste 31 Oeste 0.4 -- -- 70
2021-01-11 05:00:00 2.6 10 Noroeste 25 Oeste 0.2 -- -- 71
2021-01-11 04:00:00 2.8 11 Noroeste 27 Oeste 1 -- -- 72
2021-01-11 03:00:00 2.8 9 Noroeste 23 Oeste 0.8 -- -- 75
2021-01-11 02:00:00 2.7 11 Noroeste 26 Oeste 1 -- -- 76
2021-01-11 01:00:00 2.9 14 Noroeste 27 Oeste 1.2 -- -- 77
2021-01-11 00:00:00 2.8 12 Noroeste 29 Oeste 1.2 -- -- 81
2021-01-10 23:00:00 1.9 12 Noroeste 27 Noroeste 0.8 -- -- 92
2021-01-10 22:00:00 1.2 10 Noroeste 17 Noroeste 0.8 -- -- 98
2021-01-10 21:00:00 1.1 9 Noroeste 14 Oeste 0.8 -- -- 98
2021-01-10 20:00:00 1 10 Noroeste 14 Noroeste 0.8 -- -- 98
2021-01-10 19:00:00 0.8 8 Noroeste 18 Norte 1.2 -- -- 98
2021-01-10 18:00:00 1.1 9 Noroeste 13 Noroeste 1.6 -- -- 98
2021-01-10 17:00:00 1.5 8 Noroeste 14 Norte 2.4 -- -- 97
2021-01-10 16:00:00 1.8 8 Norte 16 Noroeste 2 -- -- 96
2021-01-10 15:00:00 1.9 6 Noroeste 12 Noroeste 2 -- -- 96
2021-01-10 14:00:00 1.9 7 Oeste 14 Noroeste 2.2 -- -- 97
2021-01-10 13:00:00 1.9 8 Noroeste 15 Noroeste 1.4 -- -- 99
2021-01-10 12:00:00 1.5 6 Oeste 10 Oeste 0.8 -- -- 99
2021-01-10 11:00:00 0.9 0 Calma -- -- 0.4 -- -- 100
2021-01-10 10:00:00 0.5 0 Calma -- -- 0.4 -- -- 99
2021-01-10 09:00:00 0.3 0 Calma -- -- 0 -- -- 99
2021-01-10 08:00:00 0.3 0 Calma -- -- 0.2 -- -- 99
2021-01-10 07:00:00 0.2 0 Calma -- -- 0 -- -- 99
2021-01-10 06:00:00 0.1 0 Calma -- -- 0 -- -- 99
2021-01-10 05:00:00 0.1 0 Calma -- -- 0 -- -- 99
2021-01-10 04:00:00 0 0 Calma -- -- 0.2 -- -- 99
2021-01-10 03:00:00 0 0 Calma -- -- 0 -- -- 99
2021-01-10 02:00:00 0 0 Calma -- -- 0 -- -- 99
2021-01-10 01:00:00 0 0 Calma -- -- 0.2 -- -- 99
2021-01-10 00:00:00 0 0 Calma -- -- 0 -- -- 99
2021-01-09 23:00:00 -0.1 0 Calma -- -- 0.2 -- -- 99
2021-01-09 22:00:00 -0.1 0 Calma -- -- 0 -- -- 99
2021-01-09 21:00:00 -0.1 0 Calma 11 Noroeste 0.2 -- -- 99
2021-01-09 20:00:00 0.1 6 Noroeste 11 Noroeste 0.2 -- -- 99
2021-01-09 19:00:00 0 5 Norte 12 Noroeste 0.2 -- -- 99
2021-01-09 18:00:00 0.2 5 Noroeste 13 Noroeste 0.4 -- -- 98
2021-01-09 17:00:00 0.2 9 Noroeste 18 Oeste 0.6 -- -- 98
2021-01-09 16:00:00 0.4 8 Noroeste 13 Noroeste 0.8 -- -- 98
2021-01-09 15:00:00 0.4 3 Noroeste 12 Noroeste 0.6 -- -- 98
2021-01-09 14:00:00 0.4 4 Norte 12 Noroeste 0.6 -- -- 98
2021-01-09 13:00:00 0.3 4 Noroeste 10 Norte 0.6 -- -- 98
2021-01-09 12:00:00 0.3 3 Noroeste 6 Oeste 0 -- -- 98
2021-01-09 11:00:00 0.2 0 Calma -- -- 0.2 -- -- 98
2021-01-09 10:00:00 0.2 0 Calma -- -- 0 -- -- 99
2021-01-09 09:00:00 0 0 Calma -- -- 0 -- -- 98
2021-01-09 08:00:00 0 0 Calma -- -- 0.2 -- -- 98
2021-01-09 07:00:00 0.1 0 Calma -- -- 0 -- -- 98
2021-01-09 06:00:00 0 0 Calma -- -- 0 -- -- 98
2021-01-09 05:00:00 0.1 0 Calma -- -- 0 -- -- 97
2021-01-09 04:00:00 0.2 0 Calma -- -- 0 -- -- 97
2021-01-09 03:00:00 0.2 0 Calma 0 Calma 0 -- -- 97
2021-01-09 02:00:00 0.1 0 Calma -- -- 0 -- -- 97
2021-01-09 01:00:00 0 0 Calma -- -- 0 -- -- 97
2021-01-09 00:00:00 0.1 0 Calma 6 Noroeste 0 -- -- 96
2021-01-08 23:00:00 0.2 5 Noroeste 7 Noroeste 0 -- -- 95
2021-01-08 22:00:00 0.8 4 Noroeste 10 Noroeste 0.2 -- -- 92
2021-01-08 21:00:00 2.5 5 Norte 9 Noroeste 0 -- -- 75
2021-01-08 20:00:00 2.5 3 Sudeste 9 Noroeste 0 -- -- 73
2021-01-08 19:00:00 2.7 9 Noroeste 14 Noroeste 0 -- -- 72
2021-01-08 18:00:00 3.1 6 Noroeste 13 Noroeste 0 -- -- 69
2021-01-08 17:00:00 3.1 6 Norte 20 Noroeste 0 -- -- 70
2021-01-08 16:00:00 3.7 13 Noroeste 23 Noroeste 0 -- -- 66
2021-01-08 15:00:00 3.7 13 Norte 24 Norte 0 -- -- 69
2021-01-08 14:00:00 4 11 Norte 23 Norte 0 -- -- 69
2021-01-08 13:00:00 3 9 Norte 18 Norte 0 -- -- 74
2021-01-08 12:00:00 1.9 12 Norte 20 Norte 0 -- -- 78
2021-01-08 11:00:00 1.2 9 Noroeste 15 Noroeste 0 -- -- 86
2021-01-08 10:00:00 0.2 9 Noroeste 14 Noroeste 0 -- -- 89
2021-01-08 09:00:00 -0.7 7 Noroeste 13 Oeste 0 -- -- 94
2021-01-08 08:00:00 -0.7 7 Noroeste 14 Noroeste 0 -- -- 94
2021-01-08 07:00:00 -0.5 7 Oeste 13 Oeste 0 -- -- 95
2021-01-08 06:00:00 -0.2 8 Oeste 12 Noroeste 0 -- -- 94
2021-01-08 05:00:00 0.1 6 Noroeste 11 Noroeste 0 -- -- 94
2021-01-08 04:00:00 0.2 6 Noroeste 9 Noroeste 0 -- -- 94
2021-01-08 03:00:00 0.7 5 Noroeste 13 Noroeste 0 -- -- 94
2021-01-08 02:00:00 0.6 8 Noroeste 12 Noroeste 0 -- -- 95
2021-01-08 01:00:00 0.4 6 Oeste 12 Oeste 0.2 -- -- 95
2021-01-08 00:00:00 0.3 8 Oeste 12 Oeste 0 -- -- 95
2021-01-07 23:00:00 0.7 7 Oeste 11 Oeste 0 -- -- 95
2021-01-07 22:00:00 0.7 7 Oeste 10 Oeste 0 -- -- 96
2021-01-07 21:00:00 0.8 6 Oeste 12 Oeste 0 -- -- 96
2021-01-07 20:00:00 0.9 4 Oeste 11 Norte 0 -- -- 95
2021-01-07 19:00:00 1.1 9 Noroeste 14 Noroeste 0.4 -- -- 95
2021-01-07 18:00:00 0.8 7 Noroeste 10 Noroeste 0 -- -- 95
2021-01-07 17:00:00 0.9 6 Noroeste 9 Noroeste 0.2 -- -- 95
2021-01-07 16:00:00 0.6 5 Noroeste 8 Noroeste 0.2 -- -- 94
2021-01-07 15:00:00 0.9 4 Norte 12 Norte 0.2 -- -- 92
2021-01-07 14:00:00 1.3 6 Norte 13 Norte 0 -- -- 87
2021-01-07 13:00:00 1.5 7 Norte 13 Norte 0 -- -- 80
2021-01-07 12:00:00 1.4 6 Norte 13 Noroeste 0 -- -- 82
2021-01-07 11:00:00 0.9 5 Norte 10 Norte 0 -- -- 85
2021-01-07 10:00:00 -0.7 3 Noroeste 6 Noroeste 0 -- -- 91
2021-01-07 09:00:00 -1.5 4 Oeste 6 Oeste 0 -- -- 94
2021-01-07 08:00:00 -1.6 2 Noroeste 4 Noroeste 0 -- -- 93
2021-01-07 07:00:00 -1.5 0 Calma 6 Oeste 0 -- -- 92
2021-01-07 06:00:00 -1.1 3 Oeste 8 Oeste 0 -- -- 91
2021-01-07 05:00:00 -1.2 4 Oeste 7 Oeste 0 -- -- 93
2021-01-07 04:00:00 -1.5 3 Oeste 4 Oeste 0 -- -- 93
2021-01-07 03:00:00 -1.5 0 Calma 5 Sudeste 0 -- -- 91
2021-01-07 02:00:00 -1.2 0 Calma 5 Oeste 0 -- -- 90
2021-01-07 01:00:00 -0.7 0 Calma 6 Oeste 0 -- -- 87
2021-01-07 00:00:00 -1.1 4 Oeste 7 Oeste 0 -- -- 91
2021-01-06 23:00:00 -1.7 0 Calma 3 Oeste 0 -- -- 93
2021-01-06 22:00:00 -2.1 0 Calma 3 Sur 0 -- -- 90
2021-01-06 21:00:00 -1.4 0 Calma 7 Sudoeste 0 -- -- 87
2021-01-06 20:00:00 -0.4 4 Oeste 7 Noroeste 0 -- -- 83
2021-01-06 19:00:00 2 5 Oeste 8 Noroeste 0 -- -- 73
2021-01-06 18:00:00 4.2 4 Noroeste 13 Noroeste 0 -- -- 65
2021-01-06 17:00:00 6.5 10 Noroeste 24 Norte 0 -- -- 56
2021-01-06 16:00:00 7.7 13 Noroeste 26 Noroeste 0 -- -- 51
2021-01-06 15:00:00 7.9 14 Noroeste 27 Noroeste 0 -- -- 52
2021-01-06 14:00:00 7.5 17 Noroeste 30 Noroeste 0 -- -- 55
2021-01-06 13:00:00 6.5 12 Norte 24 Norte 0 -- -- 60
2021-01-06 12:00:00 4.9 9 Norte 18 Noroeste 0 -- -- 70
2021-01-06 11:00:00 2.6 12 Noroeste 20 Noroeste 0 -- -- 79
2021-01-06 10:00:00 0.1 8 Noroeste 14 Noroeste 0 -- -- 88
2021-01-06 09:00:00 -1.2 8 Oeste 15 Oeste 0 -- -- 91
2021-01-06 08:00:00 -1.1 8 Oeste 14 Oeste 0 -- -- 91
2021-01-06 07:00:00 -1.3 8 Oeste 13 Noroeste 0 -- -- 92
2021-01-06 06:00:00 -0.6 7 Noroeste 14 Oeste 0 -- -- 90
2021-01-06 05:00:00 -0.5 5 Noroeste 10 Oeste 0 -- -- 89
2021-01-06 04:00:00 0 6 Oeste 11 Oeste 0 -- -- 88
2021-01-06 03:00:00 1.2 4 Noroeste 11 Norte 0 -- -- 84
2021-01-06 02:00:00 0.6 2 Norte 8 Sudoeste 0 -- -- 89
2021-01-06 01:00:00 1.8 3 Este 11 Sudoeste 0 -- -- 78
2021-01-06 00:00:00 3.8 6 Oeste 12 Oeste 0 -- -- 73
2021-01-05 23:00:00 4.5 8 Oeste 18 Oeste 0 -- -- 70
2021-01-05 22:00:00 5.1 6 Oeste 16 Noroeste 0 -- -- 66
2021-01-05 21:00:00 6.8 6 Oeste 26 Oeste 0 -- -- 61
2021-01-05 20:00:00 7.1 11 Oeste 23 Oeste 0 -- -- 59
2021-01-05 19:00:00 6.8 7 Oeste 14 Oeste 0 -- -- 58
2021-01-05 18:00:00 7.4 6 Oeste 23 Oeste 0 -- -- 56
2021-01-05 17:00:00 8.2 14 Oeste 29 Oeste 0 -- -- 52
2021-01-05 16:00:00 8.6 13 Oeste 30 Noroeste 0 -- -- 51
2021-01-05 15:00:00 8 15 Oeste 35 Oeste 0 -- -- 53
2021-01-05 14:00:00 7.4 15 Noroeste 39 Oeste 0 -- -- 58
2021-01-05 13:00:00 7.3 21 Noroeste 39 Noroeste 0 -- -- 57
2021-01-05 12:00:00 7 19 Noroeste 37 Noroeste 0 -- -- 57
2021-01-05 11:00:00 5.5 12 Norte 27 Noroeste 0 -- -- 64
2021-01-05 10:00:00 3 18 Noroeste 28 Noroeste 0 -- -- 72
2021-01-05 09:00:00 1.2 10 Noroeste 18 Noroeste 0 -- -- 80
2021-01-05 08:00:00 1.2 10 Noroeste 16 Noroeste 0 -- -- 80
2021-01-05 07:00:00 1.1 7 Noroeste 15 Oeste 0 -- -- 81
2021-01-05 06:00:00 1.6 10 Noroeste 17 Noroeste 0 -- -- 79
2021-01-05 05:00:00 1.7 8 Noroeste 18 Noroeste 0 -- -- 79
2021-01-05 04:00:00 2.8 12 Noroeste 21 Oeste 0 -- -- 75
2021-01-05 03:00:00 3.9 14 Oeste 29 Oeste 0 -- -- 70
2021-01-05 02:00:00 4.1 13 Oeste 24 Oeste 0 -- -- 70
2021-01-05 01:00:00 4.3 10 Oeste 34 Oeste 0 -- -- 69
2021-01-05 00:00:00 4.4 9 Oeste 23 Oeste 0 -- -- 67
2021-01-04 23:00:00 3.9 10 Oeste 20 Oeste 0 -- -- 69
2021-01-04 22:00:00 0.8 3 Este 6 Este 0 -- -- 77
2021-01-04 21:00:00 2.5 0 Calma 10 Oeste 0 -- -- 69
2021-01-04 20:00:00 6.1 6 Oeste 14 Oeste 0 -- -- 56
2021-01-04 19:00:00 7.4 8 Noroeste 20 Oeste 0 -- -- 52
2021-01-04 18:00:00 8 7 Oeste 23 Sudoeste 0 -- -- 49
2021-01-04 17:00:00 8.5 14 Oeste 33 Oeste 0 -- -- 48
2021-01-04 16:00:00 8.9 15 Noroeste 31 Noroeste 0 -- -- 47
2021-01-04 15:00:00 9.4 15 Noroeste 29 Noroeste 0 -- -- 46
2021-01-04 14:00:00 8.7 14 Noroeste 29 Noroeste 0 -- -- 50
2021-01-04 13:00:00 9 17 Noroeste 36 Oeste 0 -- -- 47
2021-01-04 12:00:00 9 15 Oeste 32 Sudoeste 0 -- -- 48
2021-01-04 11:00:00 6 5 Norte 9 Norte 0 -- -- 68
2021-01-04 10:00:00 2.6 3 Sur 7 Sur 0 -- -- 88
2021-01-04 09:00:00 -1.5 0 Calma 8 Sudoeste 0 -- -- 95
2021-01-04 08:00:00 -1.7 2 Nordeste 5 Sudoeste 0 -- -- 92
2021-01-04 07:00:00 -1 4 Oeste 6 Sudoeste 0 -- -- 91
2021-01-04 06:00:00 0.5 3 Sudoeste 6 Sudoeste 0 -- -- 85
2021-01-04 05:00:00 2.2 3 Norte 10 Noroeste 0 -- -- 81
2021-01-04 04:00:00 2.8 3 Este 13 Noroeste 0 -- -- 79
2021-01-04 03:00:00 5 9 Noroeste 28 Oeste 0 -- -- 70
2021-01-04 02:00:00 5.7 13 Oeste 35 Noroeste 0 -- -- 64
2021-01-04 01:00:00 6.5 15 Oeste 29 Oeste 0 -- -- 58
2021-01-04 00:00:00 5 9 Oeste 15 Oeste 0 -- -- 62
2021-01-03 23:00:00 4.5 0 Calma 18 Sudoeste 0 -- -- 64
2021-01-03 22:00:00 6.9 11 Oeste 26 Oeste 0 -- -- 55
2021-01-03 21:00:00 6.8 15 Oeste 25 Oeste 0 -- -- 57
2021-01-03 20:00:00 7.6 13 Oeste 25 Oeste 0 -- -- 56
2021-01-03 19:00:00 8.2 8 Oeste 23 Oeste 0 -- -- 57
2021-01-03 18:00:00 8.5 15 Oeste 28 Oeste 0 -- -- 56
2021-01-03 17:00:00 9.6 15 Oeste 45 Noroeste 0 -- -- 52
2021-01-03 16:00:00 9.4 15 Oeste 40 Oeste 0 -- -- 54
2021-01-03 15:00:00 9.7 21 Oeste 35 Oeste 0 -- -- 53
2021-01-03 14:00:00 8.7 15 Noroeste 42 Oeste 0 -- -- 56
2021-01-03 13:00:00 8.7 22 Oeste 41 Oeste 0 -- -- 55
2021-01-03 12:00:00 8.4 16 Oeste 33 Oeste 0 -- -- 55
2021-01-03 11:00:00 7.2 14 Oeste 39 Oeste 0 -- -- 56
2021-01-03 10:00:00 6 14 Noroeste 49 Oeste 0 -- -- 58
2021-01-03 09:00:00 4.7 22 Oeste 44 Sudoeste 0 -- -- 60
2021-01-03 08:00:00 4 18 Oeste 40 Oeste 0 -- -- 61
2021-01-03 07:00:00 3.8 17 Oeste 55 Oeste 0 -- -- 61
2021-01-03 06:00:00 3.9 27 Oeste 51 Oeste 0 -- -- 60
2021-01-03 05:00:00 4.1 18 Oeste 39 Sudoeste 0 -- -- 58
2021-01-03 04:00:00 4.1 15 Noroeste 39 Oeste 0 -- -- 54
2021-01-03 03:00:00 4.3 18 Oeste 48 Oeste 0 -- -- 55
2021-01-03 02:00:00 4.2 14 Noroeste 42 Noroeste 0 -- -- 58
2021-01-03 01:00:00 4.4 20 Oeste 49 Oeste 0 -- -- 56
2021-01-03 00:00:00 4.5 19 Oeste 51 Sudoeste 0 -- -- 55
2021-01-02 23:00:00 4.7 21 Oeste 53 Oeste 0 -- -- 56
2021-01-02 22:00:00 4.8 29 Oeste 59 Oeste 0 -- -- 52
2021-01-02 21:00:00 4.9 27 Oeste 51 Oeste 0 -- -- 49
2021-01-02 20:00:00 5.5 23 Oeste 54 Sudoeste 0 -- -- 47
2021-01-02 19:00:00 6.3 23 Oeste 48 Sur 0 -- -- 47
2021-01-02 18:00:00 7 23 Sudoeste 49 Oeste 0 -- -- 46
2021-01-02 17:00:00 8 20 Oeste 50 Sudoeste 0 -- -- 48
2021-01-02 16:00:00 9.5 16 Oeste 36 Oeste 0 -- -- 51
2021-01-02 15:00:00 9.1 12 Oeste 35 Noroeste 0 -- -- 58
2021-01-02 14:00:00 8.4 15 Oeste 38 Noroeste 0 -- -- 61